Sabahat Telli — TCSQ6 — position and weather

sailwx.info

Track history (hours):
 
Tides and Currents Weather Stations Pressure Air Temp Water Temp Dewpoint Dewpoint Depression Visibility Wind Speed Wind Dir Waves Ship Positions

Sabahat Telli

Last reported at 2015-Aug-29 03:32 UTC. Time now 2015-Aug-29 07:26 UTC.
Position N 44°47' E 030°19'.

Length 99 m; draft 4.6 m.

Type: Tanker. MMSI: 271000961.

Date/timePositionNaut miles runAvg speedWind from/ knotsBaromVisibWave heightAir tempDewpointWater temp
2015-Aug-29 03:32N 44°47' E 030°19'1412.4
2015-Aug-29 02:23N 44°35' E 030°30'1012.4
2015-Aug-29 01:33N 44°26' E 030°37'1212.5
2015-Aug-29 00:33N 44°15' E 030°46'1312.8
2015-Aug-28 23:33N 44°05' E 030°56'  
2015-Aug-25 20:05N 45°27' E 031°25'611.1
2015-Aug-25 19:33N 45°32' E 031°21'1211.7
2015-Aug-25 18:30N 45°44' E 031°15'1111.8
2015-Aug-25 17:33N 45°54' E 031°09'1211.6
2015-Aug-25 16:33N 46°05' E 031°02'1211.6
2015-Aug-25 15:34N 46°15' E 030°54'  
2015-Aug-22 06:15N 40°60' E 028°60'6 6.4
2015-Aug-22 05:23N 40°57' E 028°54'1 1.6
2015-Aug-22 04:27N 40°57' E 028°52'0 0.0
2015-Aug-21 11:33N 40°57' E 028°52'0 0.0
2015-Aug-21 10:28N 40°57' E 028°52'18 4.6
2015-Aug-21 06:33N 40°47' E 029°12'1211.8
2015-Aug-21 05:33N 40°45' E 029°27'5 0.1
2015-Aug-19 12:30N 40°44' E 029°21'1212.4
2015-Aug-19 11:33N 40°48' E 029°06'1111.2
2015-Aug-19 10:33N 40°56' E 028°56'  
Track history (hours):
 
Tides and Currents Weather Stations Pressure Air Temp Water Temp Dewpoint Dewpoint Depression Visibility Wind Speed Wind Dir Waves Ship Positions

Sabahat Telli

Last reported at 2015-Aug-29 03:32 UTC. Time now 2015-Aug-29 07:26 UTC.
Position N 44°47' E 030°19'.

Length 99 m; draft 4.6 m.

Type: Tanker. MMSI: 271000961.

Date/timePositionNaut miles runAvg speedWind from/ knotsBaromVisibWave heightAir tempDewpointWater temp
2015-Aug-29 03:32N 44°47' E 030°19'1412.4
2015-Aug-29 02:23N 44°35' E 030°30'1012.4
2015-Aug-29 01:33N 44°26' E 030°37'1212.5
2015-Aug-29 00:33N 44°15' E 030°46'1312.8
2015-Aug-28 23:33N 44°05' E 030°56'  
2015-Aug-25 20:05N 45°27' E 031°25'611.1
2015-Aug-25 19:33N 45°32' E 031°21'1211.7
2015-Aug-25 18:30N 45°44' E 031°15'1111.8
2015-Aug-25 17:33N 45°54' E 031°09'1211.6
2015-Aug-25 16:33N 46°05' E 031°02'1211.6
2015-Aug-25 15:34N 46°15' E 030°54'  
2015-Aug-22 06:15N 40°60' E 028°60'6 6.4
2015-Aug-22 05:23N 40°57' E 028°54'1 1.6
2015-Aug-22 04:27N 40°57' E 028°52'0 0.0
2015-Aug-21 11:33N 40°57' E 028°52'0 0.0
2015-Aug-21 10:28N 40°57' E 028°52'18 4.6
2015-Aug-21 06:33N 40°47' E 029°12'1211.8
2015-Aug-21 05:33N 40°45' E 029°27'5 0.1
2015-Aug-19 12:30N 40°44' E 029°21'1212.4
2015-Aug-19 11:33N 40°48' E 029°06'1111.2
2015-Aug-19 10:33N 40°56' E 028°56'  

Dump ship's entire track history